createdAt,value
2019-01-13T00:01:26.774Z,16.35
2019-01-13T00:03:56.220Z,22.22
2019-01-13T00:06:25.629Z,9.95
2019-01-13T00:08:55.041Z,5.42
2019-01-13T00:11:24.506Z,8.85
2019-01-13T00:13:53.899Z,8.85
2019-01-13T00:16:23.392Z,8.58
2019-01-13T00:18:52.733Z,7.28
2019-01-13T00:21:22.147Z,8.60
2019-01-13T00:23:51.663Z,7.90
2019-01-13T00:26:21.073Z,6.58
2019-01-13T00:28:50.417Z,8.33
2019-01-13T00:31:19.803Z,10.38
2019-01-13T00:33:49.159Z,7.40
2019-01-13T00:36:18.640Z,6.72
2019-01-13T00:38:48.028Z,6.58
2019-01-13T00:41:17.400Z,5.90
2019-01-13T00:43:46.762Z,4.97
2019-01-13T00:46:16.227Z,3.72
2019-01-13T00:48:45.649Z,3.45
2019-01-13T00:51:15.107Z,6.65
2019-01-13T00:53:44.508Z,5.50
2019-01-13T00:56:13.853Z,5.33
2019-01-13T00:58:43.247Z,5.90
2019-01-13T01:01:12.907Z,6.53
2019-01-13T01:03:42.271Z,5.85
2019-01-13T01:06:11.871Z,4.90
2019-01-13T01:08:41.389Z,4.72
2019-01-13T01:11:10.950Z,6.05
2019-01-13T01:13:40.318Z,6.75
2019-01-13T01:16:10.752Z,5.78
2019-01-13T01:18:40.194Z,6.50
2019-01-13T01:21:09.574Z,4.35
2019-01-13T01:23:38.981Z,5.30
2019-01-13T01:26:08.426Z,4.15
2019-01-13T01:28:37.790Z,5.65
2019-01-13T01:31:07.147Z,4.45
2019-01-13T01:33:36.566Z,3.87
2019-01-13T01:36:07.379Z,9.70
2019-01-13T01:38:36.778Z,3.98
2019-01-13T01:41:06.345Z,3.62
2019-01-13T01:43:35.772Z,3.10
2019-01-13T01:46:05.161Z,4.00
2019-01-13T01:48:34.535Z,3.12
2019-01-13T01:51:03.915Z,5.55
2019-01-13T01:53:33.275Z,5.08
2019-01-13T01:56:02.653Z,5.12
2019-01-13T01:58:32.162Z,4.60
2019-01-13T02:01:01.512Z,4.60
2019-01-13T02:03:30.936Z,4.70
2019-01-13T02:06:01.413Z,5.28
2019-01-13T02:08:30.816Z,4.62
2019-01-13T02:11:00.211Z,5.60
2019-01-13T02:13:29.583Z,4.33
2019-01-13T02:15:58.994Z,4.50
2019-01-13T02:18:28.406Z,4.37
2019-01-13T02:20:57.785Z,3.83
2019-01-13T02:23:27.253Z,5.70
2019-01-13T02:25:56.631Z,5.72
2019-01-13T02:28:26.054Z,4.40
2019-01-13T02:30:55.432Z,4.67
2019-01-13T02:33:24.804Z,4.15
2019-01-13T02:35:54.203Z,4.05
2019-01-13T02:38:23.539Z,3.02
2019-01-13T02:40:52.948Z,3.15
2019-01-13T02:43:22.438Z,4.53
2019-01-13T02:45:51.805Z,3.92
2019-01-13T02:48:21.193Z,4.53
2019-01-13T02:50:50.589Z,3.75
2019-01-13T02:53:19.926Z,4.50
2019-01-13T02:55:49.272Z,3.80
2019-01-13T02:58:18.730Z,4.28
2019-01-13T03:00:56.844Z,2.67
2019-01-13T03:03:20.131Z,8.98
2019-01-13T03:05:49.533Z,2.77
2019-01-13T03:08:18.932Z,4.25
2019-01-13T03:10:48.335Z,6.62
2019-01-13T03:13:17.684Z,4.37
2019-01-13T03:15:47.091Z,4.45
2019-01-13T03:18:16.467Z,3.37
2019-01-13T03:20:45.816Z,3.47
2019-01-13T03:23:15.248Z,4.40
2019-01-13T03:25:44.743Z,2.60
2019-01-13T03:28:14.068Z,3.27
2019-01-13T03:30:43.504Z,3.12
2019-01-13T03:33:12.906Z,2.70
2019-01-13T03:35:42.251Z,3.87
2019-01-13T03:38:11.738Z,3.75
2019-01-13T03:40:41.115Z,3.15
2019-01-13T03:43:10.475Z,3.22
2019-01-13T03:45:39.870Z,3.60
2019-01-13T03:48:09.231Z,3.70
2019-01-13T03:50:38.597Z,3.08
2019-01-13T03:53:08.035Z,2.25
2019-01-13T03:55:37.393Z,2.95
2019-01-13T03:58:06.778Z,3.85
2019-01-13T04:00:36.159Z,2.67
2019-01-13T04:03:05.674Z,2.42
2019-01-13T04:05:35.120Z,3.60
2019-01-13T04:08:04.832Z,2.30
2019-01-13T04:10:34.152Z,2.90
2019-01-13T04:13:03.569Z,2.90
2019-01-13T04:15:41.270Z,4.67
2019-01-13T04:18:11.055Z,4.92
2019-01-13T04:20:40.468Z,2.40
2019-01-13T04:23:09.826Z,2.12
2019-01-13T04:25:40.089Z,3.62
2019-01-13T04:28:09.559Z,2.37
2019-01-13T04:30:39.045Z,3.77
2019-01-13T04:33:08.389Z,3.72
2019-01-13T04:35:37.779Z,4.40
2019-01-13T04:38:11.648Z,4.12
2019-01-13T04:40:41.076Z,3.25
2019-01-13T04:43:10.416Z,2.25
2019-01-13T04:45:39.864Z,2.52
2019-01-13T04:48:09.205Z,2.15
2019-01-13T04:50:38.557Z,1.90
2019-01-13T04:53:09.986Z,3.50
2019-01-13T04:55:41.383Z,2.60
2019-01-13T04:58:10.737Z,2.35
2019-01-13T05:00:40.171Z,2.50
2019-01-13T05:03:09.510Z,3.05
2019-01-13T05:05:38.975Z,2.37
2019-01-13T05:08:08.325Z,2.92
2019-01-13T05:10:37.663Z,2.65
2019-01-13T05:13:07.059Z,3.33
2019-01-13T05:15:36.410Z,2.77
2019-01-13T05:18:05.749Z,3.77
2019-01-13T05:20:35.198Z,2.65
2019-01-13T05:23:04.584Z,3.27
2019-01-13T05:25:34.019Z,3.27
2019-01-13T05:28:03.516Z,3.65
2019-01-13T05:30:32.850Z,4.97
2019-01-13T05:33:02.211Z,4.03
2019-01-13T05:35:31.614Z,4.75
2019-01-13T05:38:00.974Z,3.00
2019-01-13T05:40:30.411Z,2.52
2019-01-13T05:42:59.807Z,2.17
2019-01-13T05:45:29.204Z,4.30
2019-01-13T05:47:58.601Z,3.27
2019-01-13T05:50:27.966Z,2.83
2019-01-13T05:52:57.447Z,2.17
2019-01-13T05:55:26.884Z,2.83
2019-01-13T05:57:56.330Z,3.27
2019-01-13T06:00:28.268Z,2.27
2019-01-13T06:02:57.616Z,2.92
2019-01-13T06:05:27.041Z,2.25
2019-01-13T06:07:56.422Z,3.98
2019-01-13T06:10:25.793Z,2.33
2019-01-13T06:12:55.173Z,2.20
2019-01-13T06:15:25.256Z,3.10
2019-01-13T06:17:54.670Z,2.05
2019-01-13T06:20:25.580Z,2.30
2019-01-13T06:22:54.919Z,2.33
2019-01-13T06:25:24.239Z,2.02
2019-01-13T06:27:53.659Z,2.62
2019-01-13T06:30:24.347Z,3.05
2019-01-13T06:32:53.789Z,2.08
2019-01-13T06:35:23.210Z,2.37
2019-01-13T06:37:52.809Z,3.15
2019-01-13T06:40:23.060Z,2.08
2019-01-13T06:42:52.499Z,1.70
2019-01-13T06:45:24.040Z,2.55
2019-01-13T06:47:53.442Z,1.92
2019-01-13T06:50:23.180Z,2.70
2019-01-13T06:52:52.596Z,2.45
2019-01-13T06:55:21.992Z,2.70
2019-01-13T06:57:51.383Z,2.05
2019-01-13T07:00:25.633Z,2.75
2019-01-13T07:02:55.402Z,1.75
2019-01-13T07:05:24.760Z,2.47
2019-01-13T07:07:54.209Z,4.17
2019-01-13T07:10:24.111Z,2.15
2019-01-13T07:12:53.497Z,2.33
2019-01-13T07:15:23.260Z,2.67
2019-01-13T07:17:52.664Z,1.80
2019-01-13T07:20:22.991Z,2.58
2019-01-13T07:22:52.355Z,2.65
2019-01-13T07:25:21.897Z,2.72
2019-01-13T07:27:51.237Z,4.92
2019-01-13T07:30:22.473Z,5.83
2019-01-13T07:32:51.900Z,2.47
2019-01-13T07:35:21.241Z,1.90
2019-01-13T07:37:50.568Z,2.85
2019-01-13T07:40:21.705Z,2.05
2019-01-13T07:42:51.140Z,2.60
2019-01-13T07:45:22.688Z,3.22
2019-01-13T07:47:52.085Z,4.22
2019-01-13T07:50:21.542Z,2.87
2019-01-13T07:52:50.912Z,1.80
2019-01-13T07:55:22.063Z,4.65
2019-01-13T07:57:51.447Z,2.58
2019-01-13T08:00:23.219Z,2.02
2019-01-13T08:02:53.025Z,2.92
2019-01-13T08:05:22.364Z,2.67
2019-01-13T08:07:51.746Z,2.45
2019-01-13T08:10:21.125Z,4.67
2019-01-13T08:12:50.477Z,2.55
2019-01-13T08:15:20.741Z,3.10
2019-01-13T08:17:50.462Z,3.00
2019-01-13T08:20:25.017Z,3.20
2019-01-13T08:22:54.381Z,3.47
2019-01-13T08:25:24.417Z,3.37
2019-01-13T08:27:56.059Z,4.28
2019-01-13T08:30:25.565Z,2.60
2019-01-13T08:32:54.927Z,7.55
2019-01-13T08:35:24.302Z,2.47
2019-01-13T08:37:53.755Z,4.30
2019-01-13T08:40:23.868Z,3.22
2019-01-13T08:42:53.370Z,4.58
2019-01-13T08:45:22.758Z,3.87
2019-01-13T08:47:52.109Z,3.17
2019-01-13T08:50:23.434Z,10.50
2019-01-13T08:52:52.887Z,8.70
2019-01-13T08:55:24.716Z,3.58
2019-01-13T08:57:54.071Z,6.47
2019-01-13T09:00:31.390Z,3.92
2019-01-13T09:03:00.872Z,4.62
2019-01-13T09:05:30.342Z,5.37
2019-01-13T09:07:59.809Z,4.30
2019-01-13T09:10:29.308Z,3.02
2019-01-13T09:12:58.734Z,3.67
2019-01-13T09:15:28.142Z,3.95
2019-01-13T09:17:57.610Z,2.20
2019-01-13T09:20:28.858Z,5.12
2019-01-13T09:23:00.205Z,5.78
2019-01-13T09:25:30.499Z,7.50
2019-01-13T09:27:59.925Z,4.75
2019-01-13T09:30:30.362Z,6.10
2019-01-13T09:32:59.756Z,4.53
2019-01-13T09:35:29.692Z,5.87
2019-01-13T09:37:59.479Z,4.58
2019-01-13T09:40:32.522Z,3.98
2019-01-13T09:43:03.279Z,5.08
2019-01-13T09:45:32.792Z,3.42
2019-01-13T09:48:02.254Z,5.37
2019-01-13T09:50:31.644Z,4.75
2019-01-13T09:53:01.054Z,4.95
2019-01-13T09:55:30.369Z,6.15
2019-01-13T09:57:59.741Z,5.65
2019-01-13T10:00:34.531Z,5.03
2019-01-13T10:03:04.417Z,4.42
2019-01-13T10:05:33.940Z,8.58
2019-01-13T10:08:03.337Z,6.12
2019-01-13T10:10:32.743Z,5.78
2019-01-13T10:13:02.315Z,4.90
2019-01-13T10:15:31.809Z,4.15
2019-01-13T10:18:01.202Z,4.17
2019-01-13T10:20:30.627Z,4.55
2019-01-13T10:23:00.069Z,5.03
2019-01-13T10:25:29.393Z,4.72
2019-01-13T10:27:58.971Z,5.35
2019-01-13T10:30:30.583Z,4.15
2019-01-13T10:32:59.954Z,5.45
2019-01-13T10:35:29.569Z,3.87
2019-01-13T10:37:59.045Z,3.65
2019-01-13T10:40:30.203Z,7.90
2019-01-13T10:43:00.024Z,3.52
2019-01-13T10:45:29.483Z,7.37
2019-01-13T10:47:58.995Z,5.90
2019-01-13T10:50:30.225Z,6.40
2019-01-13T10:53:05.309Z,4.97
2019-01-13T10:55:34.814Z,7.47
2019-01-13T10:58:04.783Z,6.70
2019-01-13T11:00:36.335Z,6.35
2019-01-13T11:03:06.480Z,5.60
2019-01-13T11:05:36.460Z,5.87
2019-01-13T11:08:11.485Z,6.65
2019-01-13T11:10:37.684Z,5.78
2019-01-13T11:13:07.192Z,7.00
2019-01-13T11:15:36.579Z,6.17
2019-01-13T11:18:06.935Z,11.43
2019-01-13T11:20:40.282Z,6.75
2019-01-13T11:23:09.846Z,7.58
2019-01-13T11:25:39.456Z,7.90
2019-01-13T11:28:09.079Z,5.50
2019-01-13T11:30:38.599Z,7.00
2019-01-13T11:33:09.647Z,5.70
2019-01-13T11:35:39.427Z,6.33
2019-01-13T11:38:09.438Z,8.03
2019-01-13T11:40:39.148Z,6.20
2019-01-13T11:43:08.814Z,5.03
2019-01-13T11:45:38.982Z,11.15
2019-01-13T11:48:08.504Z,10.43
2019-01-13T11:50:37.866Z,12.07
2019-01-13T11:53:07.263Z,7.80
2019-01-13T11:55:36.767Z,6.20
2019-01-13T11:58:06.475Z,13.18
2019-01-13T12:00:41.266Z,16.27
2019-01-13T12:03:16.725Z,21.12
2019-01-13T12:05:42.140Z,29.98
2019-01-13T12:08:11.747Z,34.85
2019-01-13T12:10:41.134Z,63.08
2019-01-13T12:13:10.618Z,48.63
2019-01-13T12:15:40.106Z,61.30
2019-01-13T12:18:09.560Z,48.83
2019-01-13T12:20:38.942Z,42.00
2019-01-13T12:23:08.372Z,43.87
2019-01-13T12:25:37.930Z,35.43
2019-01-13T12:28:07.388Z,34.75
2019-01-13T12:30:36.869Z,30.75
2019-01-13T12:33:06.598Z,33.90
2019-01-13T12:35:36.046Z,26.52
2019-01-13T12:38:05.658Z,33.60
2019-01-13T12:40:35.107Z,27.58
2019-01-13T12:43:05.784Z,22.73
2019-01-13T12:45:35.256Z,19.60
2019-01-13T12:48:05.881Z,22.17
2019-01-13T12:50:35.280Z,20.72
2019-01-13T12:53:04.829Z,19.37
2019-01-13T12:55:34.235Z,17.12
2019-01-13T12:58:03.662Z,17.10
2019-01-13T13:00:33.034Z,19.20
2019-01-13T13:03:02.434Z,15.50
2019-01-13T13:05:31.900Z,20.35
2019-01-13T13:08:01.309Z,18.07
2019-01-13T13:10:45.397Z,12.78
2019-01-13T13:13:15.469Z,14.13
2019-01-13T13:15:45.210Z,28.95
2019-01-13T13:18:15.797Z,13.58
2019-01-13T13:20:45.337Z,20.77
2019-01-13T13:23:14.807Z,13.43
2019-01-13T13:25:44.202Z,18.07
2019-01-13T13:28:13.626Z,22.13
2019-01-13T13:30:43.043Z,15.20
2019-01-13T13:33:12.450Z,13.13
2019-01-13T13:35:41.818Z,22.65
2019-01-13T13:38:11.340Z,15.80
2019-01-13T13:40:40.915Z,15.55
2019-01-13T13:43:11.227Z,15.75
2019-01-13T13:45:40.611Z,12.35
2019-01-13T13:48:10.023Z,16.62
2019-01-13T13:50:39.409Z,11.70
2019-01-13T13:53:08.967Z,13.60
2019-01-13T13:55:38.451Z,11.60
2019-01-13T13:58:07.861Z,13.72
2019-01-13T14:00:38.849Z,13.75
2019-01-13T14:03:08.457Z,14.65
2019-01-13T14:05:37.884Z,14.40
2019-01-13T14:08:08.076Z,11.12
2019-01-13T14:10:39.743Z,11.88
2019-01-13T14:13:09.136Z,10.90
2019-01-13T14:15:38.741Z,10.50
2019-01-13T14:18:08.181Z,11.80
2019-01-13T14:20:37.583Z,7.72
2019-01-13T14:23:07.025Z,8.60
2019-01-13T14:25:36.465Z,9.63
2019-01-13T14:28:05.920Z,10.23
2019-01-13T14:30:35.437Z,10.00
2019-01-13T14:33:05.080Z,8.23
2019-01-13T14:35:34.580Z,11.20
2019-01-13T14:38:04.027Z,10.65
2019-01-13T14:40:33.561Z,11.20
2019-01-13T14:43:03.084Z,12.03
2019-01-13T14:45:32.592Z,7.72
2019-01-13T14:48:02.048Z,7.00
2019-01-13T14:50:33.376Z,8.08
2019-01-13T14:53:03.192Z,7.58
2019-01-13T14:55:32.684Z,9.28
2019-01-13T14:58:02.068Z,11.75
2019-01-13T15:00:33.030Z,8.20
2019-01-13T15:03:03.219Z,10.40
2019-01-13T15:05:32.640Z,11.65
2019-01-13T15:08:02.250Z,8.80
2019-01-13T15:10:31.753Z,15.90
2019-01-13T15:13:01.138Z,9.40
2019-01-13T15:15:30.545Z,13.88
2019-01-13T15:18:00.060Z,10.15
2019-01-13T15:20:29.370Z,14.65
2019-01-13T15:22:58.758Z,10.18
2019-01-13T15:25:31.036Z,10.93
2019-01-13T15:28:00.442Z,12.03
2019-01-13T15:30:37.494Z,14.30
2019-01-13T15:33:08.504Z,12.30
2019-01-13T15:35:37.987Z,12.15
2019-01-13T15:38:09.035Z,9.20
2019-01-13T15:40:38.557Z,8.15
2019-01-13T15:43:08.321Z,11.33
2019-01-13T15:45:37.711Z,18.67
2019-01-13T15:48:08.216Z,16.42
2019-01-13T15:50:38.117Z,10.38
2019-01-13T15:53:07.876Z,14.75
2019-01-13T15:55:37.531Z,9.98
2019-01-13T15:58:07.435Z,11.10
2019-01-13T16:00:38.316Z,9.18
2019-01-13T16:03:09.667Z,9.23
2019-01-13T16:05:39.672Z,9.40
2019-01-13T16:08:09.530Z,8.63
2019-01-13T16:10:39.100Z,11.25
2019-01-13T16:13:08.598Z,9.83
2019-01-13T16:15:38.216Z,12.63
2019-01-13T16:18:08.720Z,29.32
2019-01-13T16:20:42.377Z,9.83
2019-01-13T16:23:11.926Z,11.65
2019-01-13T16:25:41.351Z,10.95
2019-01-13T16:28:10.780Z,15.03
2019-01-13T16:30:40.230Z,11.20
2019-01-13T16:33:09.686Z,15.85
2019-01-13T16:35:39.211Z,11.20
2019-01-13T16:38:08.625Z,9.08
2019-01-13T16:40:38.015Z,8.65
2019-01-13T16:43:07.507Z,8.48
2019-01-13T16:45:36.928Z,10.75
2019-01-13T16:48:07.082Z,8.60
2019-01-13T16:50:36.510Z,9.03
2019-01-13T16:53:06.338Z,9.83
2019-01-13T16:55:36.133Z,10.75
2019-01-13T16:58:06.550Z,10.95
2019-01-13T17:00:36.056Z,19.73
2019-01-13T17:03:05.789Z,11.85
2019-01-13T17:05:39.305Z,12.50
2019-01-13T17:08:08.864Z,20.35
2019-01-13T17:10:38.296Z,19.85
2019-01-13T17:13:07.696Z,16.30
2019-01-13T17:15:38.394Z,22.00
2019-01-13T17:18:09.258Z,27.70
2019-01-13T17:20:38.949Z,21.07
2019-01-13T17:23:08.364Z,22.67
2019-01-13T17:25:39.820Z,21.97
2019-01-13T17:28:09.044Z,16.75
2019-01-13T17:30:38.529Z,15.55
2019-01-13T17:33:08.118Z,14.07
2019-01-13T17:35:37.619Z,17.67
2019-01-13T17:38:08.242Z,19.10
2019-01-13T17:40:37.901Z,14.40
2019-01-13T17:43:07.390Z,16.02
2019-01-13T17:45:37.133Z,16.48
2019-01-13T17:48:08.252Z,16.32
2019-01-13T17:50:37.726Z,12.43
2019-01-13T17:53:09.345Z,12.68
2019-01-13T17:55:39.816Z,12.98
2019-01-13T17:58:10.224Z,13.68
2019-01-13T18:00:51.844Z,13.00
2019-01-13T18:03:28.543Z,13.65
2019-01-13T18:05:58.094Z,14.75
2019-01-13T18:08:27.483Z,10.65
2019-01-13T18:10:56.965Z,14.15
2019-01-13T18:13:26.411Z,10.98
2019-01-13T18:15:55.838Z,11.15
2019-01-13T18:18:25.250Z,11.38
2019-01-13T18:20:54.723Z,13.65
2019-01-13T18:23:25.313Z,11.33
2019-01-13T18:25:54.713Z,13.08
2019-01-13T18:28:24.202Z,11.15
2019-01-13T18:30:53.722Z,8.00
2019-01-13T18:33:23.319Z,11.83
2019-01-13T18:35:52.822Z,12.78
2019-01-13T18:38:22.258Z,21.42
2019-01-13T18:40:51.660Z,21.27
2019-01-13T18:43:21.125Z,33.25
2019-01-13T18:45:50.561Z,25.72
2019-01-13T18:48:20.048Z,25.80
2019-01-13T18:50:49.828Z,30.05
2019-01-13T18:53:19.311Z,25.05
2019-01-13T18:55:48.958Z,21.90
2019-01-13T18:58:18.396Z,25.85
2019-01-13T19:00:47.828Z,21.97
2019-01-13T19:03:17.312Z,14.90
2019-01-13T19:05:46.924Z,18.95
2019-01-13T19:08:16.477Z,18.37
2019-01-13T19:11:25.987Z,14.00
2019-01-13T19:14:42.275Z,13.28
2019-01-13T19:17:16.430Z,17.52
2019-01-13T19:19:56.914Z,13.60
2019-01-13T19:22:28.054Z,12.50
2019-01-13T19:25:02.690Z,12.93
2019-01-13T19:27:32.258Z,15.15
2019-01-13T19:30:01.751Z,12.40
2019-01-13T19:32:31.195Z,16.23
2019-01-13T19:35:04.491Z,11.95
2019-01-13T19:37:31.867Z,11.43
2019-01-13T19:40:01.508Z,17.05
2019-01-13T19:42:31.004Z,10.53
2019-01-13T19:45:00.968Z,9.43
2019-01-13T19:47:30.454Z,13.40
2019-01-13T19:49:59.945Z,22.32
2019-01-13T19:52:29.374Z,15.45
2019-01-13T19:54:58.840Z,11.70
2019-01-13T19:57:28.365Z,25.43
2019-01-13T19:59:58.752Z,22.62
2019-01-13T20:04:23.931Z,27.15
2019-01-13T20:06:53.408Z,22.07
2019-01-13T20:09:22.846Z,19.70
2019-01-13T20:11:52.263Z,25.75
2019-01-13T20:14:21.746Z,26.97
2019-01-13T20:16:51.202Z,25.08
2019-01-13T20:19:20.744Z,24.47
2019-01-13T20:21:50.194Z,26.55
2019-01-13T20:24:19.646Z,24.52
2019-01-13T20:26:49.283Z,47.43
2019-01-13T20:29:18.876Z,19.73
2019-01-13T20:31:48.374Z,26.00
2019-01-13T20:34:17.951Z,23.45
2019-01-13T20:36:47.824Z,22.27
2019-01-13T20:39:17.506Z,17.32
2019-01-13T20:41:47.047Z,40.30
2019-01-13T20:44:16.573Z,17.35
2019-01-13T20:46:46.096Z,17.82
2019-01-13T20:49:15.683Z,15.45
2019-01-13T20:51:45.460Z,21.97
2019-01-13T20:54:16.881Z,17.42
2019-01-13T20:56:46.660Z,12.95
2019-01-13T20:59:16.291Z,12.30
2019-01-13T21:01:45.936Z,17.73
2019-01-13T21:04:15.560Z,15.32
2019-01-13T21:06:46.004Z,14.38
2019-01-13T21:09:16.027Z,16.70
2019-01-13T21:11:46.103Z,20.08
2019-01-13T21:14:16.428Z,49.77
2019-01-13T21:16:46.854Z,176.53
2019-01-13T21:19:16.707Z,117.33
2019-01-13T21:21:46.554Z,108.70
2019-01-13T21:24:16.391Z,84.32
2019-01-13T21:26:46.967Z,88.42
2019-01-13T21:29:16.732Z,99.30
2019-01-13T21:31:47.093Z,110.08
2019-01-13T21:34:17.111Z,106.90
2019-01-13T21:36:46.791Z,104.72
2019-01-13T21:39:16.693Z,103.80
2019-01-13T21:41:46.387Z,83.42
2019-01-13T21:44:15.826Z,85.92
2019-01-13T21:46:45.385Z,74.05
2019-01-13T21:49:14.938Z,75.32
2019-01-13T21:51:44.452Z,78.37
2019-01-13T21:54:16.016Z,99.67
2019-01-13T21:56:45.536Z,91.70
2019-01-13T21:59:15.076Z,92.15
2019-01-13T22:01:44.480Z,77.67
2019-01-13T22:04:13.910Z,84.07
2019-01-13T22:06:43.430Z,77.87
2019-01-13T22:09:13.300Z,61.90
2019-01-13T22:11:42.718Z,56.28
2019-01-13T22:14:12.310Z,61.65
2019-01-13T22:16:41.795Z,47.50
2019-01-13T22:19:11.260Z,55.73
2019-01-13T22:21:40.808Z,48.33
2019-01-13T22:24:11.567Z,56.98
2019-01-13T22:26:41.025Z,46.28
2019-01-13T22:29:10.422Z,41.88
2019-01-13T22:31:39.811Z,43.83
2019-01-13T22:34:09.325Z,40.17
2019-01-13T22:36:38.710Z,44.58
2019-01-13T22:39:09.085Z,49.25
2019-01-13T22:41:38.536Z,32.98
2019-01-13T22:44:07.912Z,27.02
2019-01-13T22:46:37.302Z,28.05
2019-01-13T22:49:06.777Z,27.17
2019-01-13T22:51:36.175Z,26.25
2019-01-13T22:54:05.648Z,26.62
2019-01-13T22:56:35.186Z,21.97
2019-01-13T22:59:04.982Z,17.10
2019-01-13T23:01:38.812Z,20.02
2019-01-13T23:04:13.225Z,19.57
2019-01-13T23:06:42.740Z,13.98
2019-01-13T23:09:13.415Z,16.02
2019-01-13T23:11:42.923Z,11.30
2019-01-13T23:14:12.438Z,15.23
2019-01-13T23:16:42.073Z,12.28
2019-01-13T23:19:11.430Z,8.88
2019-01-13T23:21:40.957Z,8.80
2019-01-13T23:24:10.320Z,9.63
2019-01-13T23:26:39.774Z,12.30
2019-01-13T23:29:09.144Z,12.13
2019-01-13T23:31:38.615Z,9.70
2019-01-13T23:34:07.980Z,10.72
2019-01-13T23:36:37.361Z,11.22
2019-01-13T23:39:08.815Z,7.78
2019-01-13T23:41:38.203Z,7.35
2019-01-13T23:44:07.666Z,5.37
2019-01-13T23:46:37.151Z,4.30
2019-01-13T23:49:06.926Z,6.08
2019-01-13T23:51:36.307Z,4.83
2019-01-13T23:54:05.725Z,3.52
2019-01-13T23:56:35.133Z,5.50
2019-01-13T23:59:04.645Z,3.70
